Time;durP1;ratioP1;P1;durP2;ratioP2;P2;SDS_P1;SDS_P2;PMS_P1;PMS_P2;Temp;Humidity;BMP_temperature;BMP_pressure;BME280_temperature;BME280_humidity;BME280_pressure;Samples;Min_cycle;Max_cycle;Signal;HPM_P1;HPM_P2
2023/07/11 00:02:00;;;;;;;1.83;1.50;;;19.20;99.90;;;;;;5053512;28;20224;-69
2023/07/11 00:04:25;;;;;;;1.67;1.40;;;19.20;99.90;;;;;;5052424;28;20500;-69
2023/07/11 00:06:52;;;;;;;1.83;1.60;;;19.20;99.90;;;;;;5052930;28;20264;-69
2023/07/11 00:09:19;;;;;;;2.63;2.10;;;19.10;99.90;;;;;;5053450;28;20167;-68
2023/07/11 00:11:44;;;;;;;2.13;1.57;;;19.10;99.90;;;;;;5051835;28;20409;-68
2023/07/11 00:14:11;;;;;;;3.30;1.70;;;19.00;99.90;;;;;;5051770;28;20413;-69
2023/07/11 00:16:37;;;;;;;2.20;1.83;;;18.90;99.90;;;;;;5052900;28;20163;-69
2023/07/11 00:19:03;;;;;;;2.50;2.20;;;18.90;99.90;;;;;;5053119;28;20598;-68
2023/07/11 00:21:29;;;;;;;3.00;2.03;;;18.90;99.90;;;;;;5053062;28;20159;-68
2023/07/11 00:24:03;;;;;;;1.70;1.60;;;18.90;99.90;;;;;;5053025;28;20943;-69
2023/07/11 00:26:32;;;;;;;3.00;1.70;;;18.90;99.90;;;;;;5052671;28;20202;-68
2023/07/11 00:29:16;;;;;;;2.37;2.00;;;18.90;99.90;;;;;;5052751;28;20453;-68
2023/07/11 00:31:41;;;;;;;2.43;1.80;;;18.80;99.90;;;;;;5053059;28;20401;-68
2023/07/11 00:34:07;;;;;;;2.07;1.87;;;18.80;99.90;;;;;;5052788;28;20890;-68
2023/07/11 00:36:32;;;;;;;1.77;1.67;;;18.70;99.90;;;;;;5052601;28;20171;-68
2023/07/11 00:38:58;;;;;;;1.47;1.37;;;18.70;99.90;;;;;;5052786;28;20593;-68
2023/07/11 00:41:24;;;;;;;2.10;1.90;;;18.60;99.90;;;;;;5052671;28;20198;-68
2023/07/11 00:43:49;;;;;;;2.17;1.63;;;18.50;99.90;;;;;;5052741;28;20167;-68
2023/07/11 00:46:17;;;;;;;2.97;1.77;;;18.50;99.90;;;;;;5052381;28;20171;-68
2023/07/11 00:49:03;;;;;;;5.00;2.17;;;18.50;99.90;;;;;;5052520;28;20265;-68
2023/07/11 00:51:33;;;;;;;7.23;2.30;;;18.40;99.90;;;;;;5052306;28;20445;-69
2023/07/11 00:54:00;;;;;;;3.73;2.00;;;18.40;99.90;;;;;;5052611;28;20402;-68
2023/07/11 00:56:29;;;;;;;2.07;1.90;;;18.30;99.90;;;;;;5052171;28;20448;-69
2023/07/11 00:58:57;;;;;;;3.37;1.97;;;18.30;99.90;;;;;;5052240;28;20925;-68
2023/07/11 01:01:23;;;;;;;3.20;2.40;;;18.30;99.90;;;;;;5052393;28;20398;-69
2023/07/11 01:03:51;;;;;;;3.47;1.93;;;18.30;99.90;;;;;;5052425;28;20908;-69
2023/07/11 01:06:20;;;;;;;2.60;1.80;;;18.30;99.90;;;;;;5051942;28;20398;-68
2023/07/11 01:08:48;;;;;;;2.10;1.90;;;18.30;99.90;;;;;;5052056;28;20806;-69
2023/07/11 01:11:14;;;;;;;2.43;2.20;;;18.30;99.90;;;;;;5052237;28;20500;-68
2023/07/11 01:13:40;;;;;;;3.17;2.10;;;18.20;99.90;;;;;;5052168;28;20412;-68
2023/07/11 01:16:06;;;;;;;3.87;2.47;;;18.10;99.90;;;;;;5051838;28;20452;-69
2023/07/11 01:18:31;;;;;;;2.37;1.77;;;18.10;99.90;;;;;;5052059;28;20429;-68
2023/07/11 01:20:57;;;;;;;2.13;1.80;;;18.10;99.90;;;;;;5051832;28;20167;-68
2023/07/11 01:23:23;;;;;;;3.43;2.10;;;18.00;99.90;;;;;;5051571;28;20267;-68
2023/07/11 01:25:49;;;;;;;2.23;2.00;;;18.10;99.90;;;;;;5051795;28;20218;-68
2023/07/11 01:28:15;;;;;;;6.70;2.10;;;18.00;99.90;;;;;;5051748;28;20437;-68
2023/07/11 01:30:40;;;;;;;6.47;2.47;;;17.90;99.90;;;;;;5052023;28;20417;-68
2023/07/11 01:33:06;;;;;;;2.80;1.90;;;18.00;99.90;;;;;;5051887;28;20228;-68
2023/07/11 01:35:31;;;;;;;2.70;2.00;;;18.00;99.90;;;;;;5051648;28;20206;-68
2023/07/11 01:37:57;;;;;;;5.10;4.00;;;18.00;99.90;;;;;;5051838;28;20187;-68
2023/07/11 01:40:23;;;;;;;4.17;2.33;;;18.00;99.90;;;;;;5051989;28;20173;-68
2023/07/11 01:42:50;;;;;;;2.23;1.90;;;18.00;99.90;;;;;;5052000;28;20171;-68
2023/07/11 01:45:16;;;;;;;3.70;2.20;;;18.00;99.90;;;;;;5051610;28;20163;-68
2023/07/11 01:47:41;;;;;;;2.37;2.17;;;18.00;99.90;;;;;;5051937;28;20424;-68
2023/07/11 01:50:08;;;;;;;3.07;1.60;;;17.90;99.90;;;;;;5050227;28;20213;-68
2023/07/11 01:52:34;;;;;;;2.20;1.90;;;17.90;99.90;;;;;;5051745;28;20221;-68
2023/07/11 01:55:00;;;;;;;3.60;2.00;;;17.90;99.90;;;;;;5051206;28;20460;-68
2023/07/11 01:57:26;;;;;;;2.33;2.13;;;17.80;99.90;;;;;;5051709;28;20797;-68
2023/07/11 01:59:51;;;;;;;1.93;1.70;;;17.80;99.90;;;;;;5051724;28;20178;-68
2023/07/11 02:02:17;;;;;;;3.50;2.10;;;17.80;99.90;;;;;;5051775;28;20242;-68
2023/07/11 02:04:43;;;;;;;1.77;1.40;;;17.80;99.90;;;;;;5051591;28;20171;-68
2023/07/11 02:07:10;;;;;;;2.53;1.80;;;17.70;99.90;;;;;;5051409;28;20305;-68
2023/07/11 02:09:35;;;;;;;2.43;1.90;;;17.70;99.90;;;;;;5051539;28;20405;-68
2023/07/11 02:12:01;;;;;;;3.90;2.33;;;17.60;99.90;;;;;;5051487;28;20756;-68
2023/07/11 02:14:27;;;;;;;4.63;2.27;;;17.50;99.90;;;;;;5051325;28;20668;-68
2023/07/11 02:16:53;;;;;;;2.47;2.27;;;17.40;99.90;;;;;;5051039;28;20220;-68
2023/07/11 02:19:22;;;;;;;3.70;2.00;;;17.40;99.90;;;;;;5050282;28;20282;-68
2023/07/11 02:21:47;;;;;;;2.27;1.73;;;17.40;99.90;;;;;;5051624;28;20402;-68
2023/07/11 02:24:16;;;;;;;2.30;2.03;;;17.50;99.90;;;;;;5051321;28;20462;-68
2023/07/11 02:26:42;;;;;;;2.80;2.40;;;17.40;99.90;;;;;;5051157;28;20202;-70
2023/07/11 02:29:08;;;;;;;3.13;2.10;;;17.40;99.90;;;;;;5051215;28;20448;-70
2023/07/11 02:31:35;;;;;;;2.37;2.17;;;17.40;99.90;;;;;;5051424;28;20467;-68
2023/07/11 02:34:01;;;;;;;3.20;2.10;;;17.40;99.90;;;;;;5053723;28;20402;-68
2023/07/11 02:36:27;;;;;;;2.07;1.87;;;17.40;99.90;;;;;;5054689;28;20432;-68
2023/07/11 02:38:52;;;;;;;2.53;2.33;;;17.40;99.90;;;;;;5054967;28;20608;-68
2023/07/11 02:41:18;;;;;;;6.33;2.40;;;17.30;99.90;;;;;;5054876;28;20525;-68
2023/07/11 02:43:45;;;;;;;4.70;2.80;;;17.20;99.90;;;;;;5055016;28;20171;-68
2023/07/11 02:46:10;;;;;;;3.43;2.73;;;17.20;99.90;;;;;;5054583;28;20183;-68
2023/07/11 02:48:36;;;;;;;3.97;2.23;;;17.20;99.90;;;;;;5054889;28;20992;-70
2023/07/11 02:51:01;;;;;;;6.00;2.93;;;17.10;99.90;;;;;;5054794;28;20167;-70
2023/07/11 02:53:27;;;;;;;5.53;4.30;;;17.10;99.90;;;;;;5052967;28;20183;-68
2023/07/11 02:55:53;;;;;;;3.20;2.53;;;17.00;99.90;;;;;;5053950;28;20203;-68
2023/07/11 02:58:19;;;;;;;3.00;2.80;;;17.10;99.90;;;;;;5054580;28;20194;-68
2023/07/11 03:00:49;;;;;;;2.50;2.07;;;17.00;99.90;;;;;;5054532;28;20409;-68
2023/07/11 03:03:14;;;;;;;3.17;2.27;;;17.10;99.90;;;;;;5054694;28;20541;-71
2023/07/11 03:05:47;;;;;;;4.60;2.50;;;17.10;99.90;;;;;;5052670;28;20421;-70
2023/07/11 03:08:13;;;;;;;3.77;2.90;;;17.10;99.90;;;;;;5053000;28;20210;-68
2023/07/11 03:10:39;;;;;;;3.03;2.57;;;17.00;99.90;;;;;;5054438;28;20470;-68
2023/07/11 03:13:05;;;;;;;7.60;3.43;;;17.00;99.90;;;;;;5054485;28;20405;-68
2023/07/11 03:15:33;;;;;;;3.37;2.47;;;17.10;99.90;;;;;;5054163;28;20668;-68
2023/07/11 03:17:59;;;;;;;2.10;1.87;;;17.00;99.90;;;;;;5054313;28;20457;-68
2023/07/11 03:20:24;;;;;;;7.33;4.80;;;17.00;99.90;;;;;;5054322;28;20440;-68
2023/07/11 03:22:50;;;;;;;8.83;7.27;;;17.00;99.90;;;;;;5054126;28;20588;-68
2023/07/11 03:25:15;;;;;;;3.43;2.90;;;17.10;99.90;;;;;;5053839;28;20651;-68
2023/07/11 03:27:41;;;;;;;3.90;3.60;;;17.10;99.90;;;;;;5054182;28;20195;-68
2023/07/11 03:30:07;;;;;;;2.83;2.63;;;17.10;99.90;;;;;;5054208;28;20573;-68
2023/07/11 03:32:32;;;;;;;2.80;2.60;;;17.10;99.90;;;;;;5054136;28;20171;-68
2023/07/11 03:34:58;;;;;;;2.13;2.03;;;17.00;99.90;;;;;;5053750;28;20502;-68
2023/07/11 03:37:23;;;;;;;4.63;1.80;;;16.90;99.90;;;;;;5053762;28;20187;-68
2023/07/11 03:39:49;;;;;;;2.03;1.90;;;16.90;99.90;;;;;;5053978;28;20174;-68
2023/07/11 03:42:15;;;;;;;2.60;1.97;;;16.90;99.90;;;;;;5053930;28;20513;-68
2023/07/11 03:44:42;;;;;;;3.73;2.13;;;16.90;99.90;;;;;;5053116;28;20417;-68
2023/07/11 03:47:08;;;;;;;2.83;2.40;;;16.80;99.90;;;;;;5053510;28;20245;-68
2023/07/11 03:49:34;;;;;;;4.43;2.53;;;16.80;99.90;;;;;;5054011;28;20910;-68
2023/07/11 03:51:59;;;;;;;3.27;2.47;;;16.90;99.90;;;;;;5053778;28;20530;-70
2023/07/11 03:54:25;;;;;;;3.90;2.40;;;16.90;99.90;;;;;;5053642;28;20563;-70
2023/07/11 03:56:51;;;;;;;3.93;2.80;;;16.90;99.90;;;;;;5053275;28;20174;-70
2023/07/11 03:59:17;;;;;;;3.07;2.77;;;16.80;99.90;;;;;;5053746;28;20159;-70
2023/07/11 04:01:42;;;;;;;4.20;2.57;;;16.80;99.90;;;;;;5052267;28;20413;-68
2023/07/11 04:04:08;;;;;;;3.87;2.30;;;16.80;99.90;;;;;;5052125;28;20167;-68
2023/07/11 04:06:33;;;;;;;3.47;2.90;;;16.80;99.90;;;;;;5053110;28;20179;-68
2023/07/11 04:08:59;;;;;;;2.70;2.00;;;16.90;99.90;;;;;;5053111;28;20267;-69
2023/07/11 04:11:25;;;;;;;2.77;2.10;;;16.80;99.90;;;;;;5053320;28;20198;-69
2023/07/11 04:13:50;;;;;;;10.27;3.00;;;16.90;99.90;;;;;;5052212;28;20162;-69
2023/07/11 04:16:16;;;;;;;7.10;2.93;;;16.90;99.90;;;;;;5052952;28;20282;-69
2023/07/11 04:18:41;;;;;;;3.47;3.00;;;16.90;99.90;;;;;;5053135;28;20525;-69
2023/07/11 04:21:07;;;;;;;4.77;3.23;;;16.90;99.90;;;;;;5052941;28;20604;-69
2023/07/11 04:23:32;;;;;;;5.93;3.10;;;17.00;99.90;;;;;;5053073;28;20171;-69
2023/07/11 04:25:58;;;;;;;4.33;2.60;;;17.00;99.90;;;;;;5052898;28;20549;-69
2023/07/11 04:28:23;;;;;;;3.83;3.53;;;17.20;99.90;;;;;;5052940;28;20563;-69
2023/07/11 04:30:49;;;;;;;8.70;3.27;;;17.20;99.90;;;;;;5051697;28;20659;-69
2023/07/11 04:33:14;;;;;;;4.80;3.13;;;17.20;99.90;;;;;;5051644;28;20186;-69
2023/07/11 04:35:40;;;;;;;4.00;3.60;;;17.30;99.90;;;;;;5052516;28;20186;-69
2023/07/11 04:38:06;;;;;;;4.60;3.40;;;17.30;99.90;;;;;;5051439;28;20269;-70
2023/07/11 04:40:31;;;;;;;3.67;3.20;;;17.40;99.90;;;;;;5052801;28;20170;-70
2023/07/11 04:43:00;;;;;;;6.00;4.00;;;17.50;99.90;;;;;;5052578;28;20205;-69
2023/07/11 04:45:26;;;;;;;5.43;3.63;;;17.50;99.90;;;;;;5052392;28;20163;-70
2023/07/11 04:47:51;;;;;;;3.27;2.97;;;17.60;99.90;;;;;;5052843;28;20918;-69
2023/07/11 04:50:17;;;;;;;6.17;4.00;;;17.70;99.90;;;;;;5052621;28;20403;-69
2023/07/11 04:52:44;;;;;;;5.17;4.30;;;17.90;99.90;;;;;;5052579;28;20171;-69
2023/07/11 04:55:10;;;;;;;3.60;3.20;;;18.00;99.90;;;;;;5052183;28;20245;-69
2023/07/11 04:57:35;;;;;;;3.83;2.93;;;18.10;99.90;;;;;;5052348;28;20421;-69
2023/07/11 05:00:01;;;;;;;4.63;4.23;;;18.20;99.90;;;;;;5052362;28;20220;-69
2023/07/11 05:02:26;;;;;;;4.40;3.43;;;18.30;99.90;;;;;;5052373;28;20163;-69
2023/07/11 05:04:52;;;;;;;4.00;3.63;;;18.30;99.90;;;;;;5052179;28;20221;-69
2023/07/11 05:07:17;;;;;;;3.73;3.33;;;18.40;99.90;;;;;;5051816;28;20264;-69
2023/07/11 05:09:43;;;;;;;3.90;3.60;;;18.50;99.90;;;;;;5052110;28;20170;-69
2023/07/11 05:12:10;;;;;;;3.90;3.03;;;18.60;99.90;;;;;;5052272;28;20178;-69
2023/07/11 05:14:36;;;;;;;9.83;3.90;;;18.70;99.90;;;;;;5051991;28;20187;-69
2023/07/11 05:17:02;;;;;;;3.00;2.43;;;18.80;99.90;;;;;;5051905;28;20447;-70
2023/07/11 05:19:27;;;;;;;4.63;3.57;;;18.80;99.90;;;;;;5050753;28;20984;-70
2023/07/11 05:21:53;;;;;;;4.50;3.10;;;18.90;99.90;;;;;;5052114;28;20237;-69
2023/07/11 05:24:18;;;;;;;9.00;3.60;;;19.00;99.90;;;;;;5052045;28;20628;-69
2023/07/11 05:26:44;;;;;;;3.93;2.93;;;19.10;99.90;;;;;;5051843;28;20155;-69
2023/07/11 05:29:09;;;;;;;3.40;3.03;;;19.20;99.90;;;;;;5052004;28;20190;-69
2023/07/11 05:31:35;;;;;;;4.23;2.70;;;19.40;99.90;;;;;;5051941;28;20159;-69
2023/07/11 05:34:00;;;;;;;10.20;3.60;;;19.50;99.90;;;;;;5050772;28;20198;-69
2023/07/11 05:36:34;;;;;;;3.80;3.33;;;19.60;99.90;;;;;;5050335;28;20545;-69
2023/07/11 05:39:07;;;;;;;4.70;2.90;;;19.80;99.90;;;;;;5051922;28;20205;-70
2023/07/11 05:41:35;;;;;;;4.53;2.90;;;19.90;99.90;;;;;;5051923;28;20408;-69
2023/07/11 05:44:01;;;;;;;2.70;2.50;;;20.00;99.90;;;;;;5051861;28;20918;-69
2023/07/11 05:46:27;;;;;;;6.90;3.33;;;20.20;99.90;;;;;;5051554;28;20421;-69
2023/07/11 05:48:54;;;;;;;3.33;3.03;;;20.50;99.90;;;;;;5050571;28;20495;-69
2023/07/11 05:51:21;;;;;;;4.70;3.40;;;20.60;99.90;;;;;;5051767;28;20206;-69
2023/07/11 05:53:48;;;;;;;5.80;2.60;;;20.80;99.90;;;;;;5051854;28;20407;-69
2023/07/11 05:56:14;;;;;;;3.40;2.97;;;21.10;99.90;;;;;;5051378;28;20987;-69
2023/07/11 05:58:43;;;;;;;5.57;3.43;;;21.30;99.90;;;;;;5050452;28;20421;-70
2023/07/11 06:01:11;;;;;;;2.97;2.70;;;21.50;99.90;;;;;;5051485;28;20210;-69
2023/07/11 06:03:40;;;;;;;3.67;2.30;;;21.80;99.90;;;;;;5051672;28;20902;-70
2023/07/11 06:06:08;;;;;;;5.30;2.33;;;22.00;99.90;;;;;;5051273;28;20393;-69
2023/07/11 06:08:34;;;;;;;2.43;2.23;;;22.30;99.90;;;;;;5053444;28;20432;-70
2023/07/11 06:11:02;;;;;;;3.77;2.60;;;22.70;99.90;;;;;;5055576;28;20397;-70
2023/07/11 06:13:29;;;;;;;8.40;2.33;;;23.10;99.90;;;;;;5055542;28;20198;-69
2023/07/11 06:16:04;;;;;;;3.30;2.20;;;23.90;99.90;;;;;;5055378;28;20560;-70
2023/07/11 06:18:32;;;;;;;3.03;2.23;;;24.50;99.90;;;;;;5055595;28;20413;-70
2023/07/11 06:20:58;;;;;;;4.83;2.63;;;25.40;99.90;;;;;;5055482;28;20436;-68
2023/07/11 06:23:23;;;;;;;4.00;2.30;;;26.10;99.90;;;;;;5055534;28;20416;-70
2023/07/11 06:25:49;;;;;;;3.37;1.90;;;26.80;99.90;;;;;;5055241;28;20182;-70
2023/07/11 06:28:14;;;;;;;2.93;2.33;;;27.40;99.90;;;;;;5055142;28;20191;-70
2023/07/11 06:30:41;;;;;;;2.97;2.40;;;28.50;99.90;;;;;;5055296;28;20265;-70
2023/07/11 06:33:09;;;;;;;3.47;2.47;;;29.60;99.90;;;;;;5055281;28;20163;-68
2023/07/11 06:35:40;;;;;;;2.53;2.30;;;30.30;77.60;;;;;;5054740;28;20464;-68
2023/07/11 06:38:09;;;;;;;2.47;2.27;;;30.90;67.30;;;;;;5055054;28;20937;-68
2023/07/11 06:40:35;;;;;;;2.90;1.80;;;31.20;62.40;;;;;;5055161;28;20393;-68
2023/07/11 06:43:00;;;;;;;3.17;2.23;;;31.60;58.50;;;;;;5054860;28;20412;-68
2023/07/11 06:45:26;;;;;;;4.10;2.73;;;32.20;57.20;;;;;;5055020;28;20178;-71
2023/07/11 06:47:52;;;;;;;2.63;2.30;;;32.50;53.70;;;;;;5054911;28;20186;-70
2023/07/11 06:50:17;;;;;;;3.50;2.27;;;33.00;53.50;;;;;;5055426;28;20258;-70
2023/07/11 06:52:43;;;;;;;2.10;1.90;;;33.80;51.60;;;;;;5055402;28;20167;-71
2023/07/11 06:55:09;;;;;;;2.77;2.50;;;34.70;49.00;;;;;;5054878;28;20190;-71
2023/07/11 06:57:35;;;;;;;2.67;2.20;;;35.10;47.30;;;;;;5056240;28;20432;-70
2023/07/11 07:00:00;;;;;;;3.23;2.40;;;35.10;45.40;;;;;;5056110;28;20159;-71
2023/07/11 07:02:26;;;;;;;4.03;2.40;;;35.40;43.80;;;;;;5055496;28;20209;-71
2023/07/11 07:04:52;;;;;;;4.43;2.80;;;35.50;44.00;;;;;;5054833;28;20175;-71
2023/07/11 07:07:19;;;;;;;3.30;3.00;;;36.00;43.00;;;;;;5054571;28;20256;-71
2023/07/11 07:09:44;;;;;;;2.93;2.43;;;36.50;42.30;;;;;;5054608;28;20253;-71
2023/07/11 07:12:10;;;;;;;2.70;2.30;;;36.80;41.30;;;;;;5054426;28;20555;-71
2023/07/11 07:14:35;;;;;;;2.33;2.10;;;37.20;40.50;;;;;;5054380;28;20241;-71
2023/07/11 07:17:01;;;;;;;5.23;2.33;;;37.30;39.80;;;;;;5054082;28;20174;-71
2023/07/11 07:19:27;;;;;;;2.70;2.50;;;37.30;39.60;;;;;;5053044;28;20167;-71
2023/07/11 07:21:52;;;;;;;2.57;2.37;;;37.50;39.00;;;;;;5054314;28;20244;-71
2023/07/11 07:24:18;;;;;;;2.77;2.57;;;38.10;38.50;;;;;;5054221;28;20190;-71
2023/07/11 07:26:43;;;;;;;8.47;2.53;;;38.20;38.50;;;;;;5053933;28;20246;-71
2023/07/11 07:29:09;;;;;;;3.23;2.40;;;38.20;37.40;;;;;;5054042;28;20183;-71
2023/07/11 07:31:34;;;;;;;2.73;2.53;;;38.80;37.90;;;;;;5054198;28;20162;-72
2023/07/11 07:34:00;;;;;;;2.67;2.47;;;38.50;35.70;;;;;;5054043;28;20246;-71
2023/07/11 07:36:25;;;;;;;2.90;2.60;;;38.60;35.60;;;;;;5053679;28;20230;-72
2023/07/11 07:38:51;;;;;;;7.50;3.00;;;38.60;35.60;;;;;;5053942;28;20267;-71
2023/07/11 07:41:18;;;;;;;2.43;2.23;;;38.80;36.00;;;;;;5053952;28;20660;-71
2023/07/11 07:43:44;;;;;;;3.83;2.67;;;38.90;35.80;;;;;;5053884;28;20170;-71
2023/07/11 07:46:13;;;;;;;3.93;2.30;;;39.00;35.60;;;;;;5053632;28;20410;-71
2023/07/11 07:48:39;;;;;;;3.20;2.90;;;39.90;35.20;;;;;;5053359;28;20388;-71
2023/07/11 07:51:07;;;;;;;3.70;2.90;;;40.40;34.20;;;;;;5053746;28;20402;-71
2023/07/11 07:53:33;;;;;;;2.60;2.40;;;40.50;33.50;;;;;;5053590;28;20232;-71
2023/07/11 07:56:07;;;;;;;3.97;2.50;;;40.50;33.40;;;;;;5053325;28;20457;-71
2023/07/11 07:58:33;;;;;;;3.13;2.83;;;41.00;33.00;;;;;;5053651;28;20193;-71
2023/07/11 08:00:59;;;;;;;3.23;2.47;;;41.50;32.70;;;;;;5053559;28;20409;-71
2023/07/11 08:03:24;;;;;;;3.10;2.80;;;41.70;31.80;;;;;;5053451;28;20401;-68
2023/07/11 08:05:54;;;;;;;4.07;2.90;;;41.80;31.30;;;;;;5053171;28;20174;-67
2023/07/11 08:08:20;;;;;;;3.40;2.80;;;42.30;31.40;;;;;;5053409;28;20198;-67
2023/07/11 08:10:45;;;;;;;4.97;2.70;;;42.20;30.60;;;;;;5053411;28;20387;-67
2023/07/11 08:13:11;;;;;;;3.50;2.30;;;42.90;30.60;;;;;;5053325;28;20250;-67
2023/07/11 08:15:36;;;;;;;3.30;2.57;;;43.70;30.80;;;;;;5052873;28;20227;-67
2023/07/11 08:18:02;;;;;;;3.93;2.30;;;44.20;29.40;;;;;;5053125;28;20211;-67
2023/07/11 08:20:27;;;;;;;4.30;2.60;;;44.30;28.70;;;;;;5052916;28;20159;-68
2023/07/11 08:22:54;;;;;;;2.50;2.30;;;44.20;28.50;;;;;;5053130;28;20224;-68
2023/07/11 08:25:20;;;;;;;2.80;2.60;;;44.80;29.00;;;;;;5052787;28;20656;-69
2023/07/11 08:27:45;;;;;;;3.40;2.47;;;44.50;27.20;;;;;;5052920;28;20407;-68
2023/07/11 08:30:11;;;;;;;2.60;2.43;;;44.50;27.80;;;;;;5053065;28;20183;-68
2023/07/11 08:32:38;;;;;;;2.63;2.43;;;43.70;27.50;;;;;;5052924;28;20189;-68
2023/07/11 08:35:05;;;;;;;4.60;3.40;;;43.80;28.50;;;;;;5052516;28;20536;-68
2023/07/11 08:37:30;;;;;;;3.07;2.87;;;44.40;28.30;;;;;;5052905;28;20384;-68
2023/07/11 08:39:56;;;;;;;2.70;2.50;;;44.60;27.40;;;;;;5052978;28;20398;-68
2023/07/11 08:42:27;;;;;;;5.43;2.57;;;44.70;27.30;;;;;;5052810;28;20177;-68
2023/07/11 08:44:58;;;;;;;2.67;2.47;;;44.80;27.20;;;;;;5052503;28;20178;-68
2023/07/11 08:47:30;;;;;;;2.50;2.30;;;45.70;27.00;;;;;;5052669;28;20499;-69
2023/07/11 08:50:02;;;;;;;2.57;2.37;;;46.80;27.10;;;;;;5052831;28;20379;-68
2023/07/11 08:52:31;;;;;;;2.53;2.33;;;47.10;25.90;;;;;;5052790;28;20372;-69
2023/07/11 08:55:04;;;;;;;4.03;2.90;;;47.70;25.40;;;;;;5052373;28;20569;-68
2023/07/11 08:57:35;;;;;;;2.70;2.50;;;48.50;25.10;;;;;;5052586;28;20856;-68
2023/07/11 09:00:05;;;;;;;2.60;2.40;;;48.90;24.50;;;;;;5051494;28;20763;-68
2023/07/11 09:02:54;;;;;;;5.47;2.80;;;49.00;24.50;;;;;;5052294;28;20405;-68
2023/07/11 09:05:57;;;;;;;4.23;3.00;;;49.80;24.40;;;;;;5052018;28;20420;-69
2023/07/11 09:08:23;;;;;;;3.10;2.80;;;51.40;24.60;;;;;;5050771;28;20419;-69
2023/07/11 09:11:01;;;;;;;3.37;3.07;;;51.50;22.80;;;;;;5052097;28;20402;-69
2023/07/11 09:13:44;;;;;;;2.70;2.50;;;51.40;22.40;;;;;;5052461;28;20824;-68
2023/07/11 09:16:26;;;;;;;2.80;2.60;;;51.40;22.70;;;;;;5050649;28;20452;-69
2023/07/11 09:18:55;;;;;;;3.37;2.90;;;51.50;22.00;;;;;;5052078;28;20409;-68
2023/07/11 09:21:46;;;;;;;3.00;2.80;;;51.10;21.90;;;;;;5052243;28;20762;-69
2023/07/11 09:24:32;;;;;;;3.53;2.97;;;50.40;21.90;;;;;;5051469;28;20470;-69
2023/07/11 09:27:21;;;;;;;3.50;3.20;;;50.40;22.00;;;;;;5051772;28;20397;-69
2023/07/11 09:29:49;;;;;;;8.20;2.70;;;51.50;23.10;;;;;;5051869;28;20915;-68
2023/07/11 09:32:16;;;;;;;4.40;3.17;;;52.20;21.90;;;;;;5050778;28;20747;-69
2023/07/11 09:34:44;;;;;;;3.00;2.80;;;52.50;21.60;;;;;;5051945;28;20476;-69
2023/07/11 09:37:33;;;;;;;3.63;3.10;;;52.60;21.40;;;;;;5051733;28;20421;-69
2023/07/11 09:40:07;;;;;;;8.90;3.30;;;51.90;21.10;;;;;;5051747;28;20489;-69
2023/07/11 09:42:40;;;;;;;2.43;2.30;;;50.60;21.50;;;;;;5051254;28;20400;-68
2023/07/11 09:45:15;;;;;;;3.20;3.00;;;51.20;22.20;;;;;;5051649;28;20401;-68
2023/07/11 09:47:42;;;;;;;3.60;3.30;;;52.10;21.80;;;;;;5051881;28;20432;-68
2023/07/11 09:50:38;;;;;;;5.03;3.13;;;52.70;21.00;;;;;;5051899;28;20763;-69
2023/07/11 09:53:13;;;;;;;3.23;3.03;;;52.50;21.00;;;;;;5051915;28;20802;-69
2023/07/11 09:55:39;;;;;;;3.63;2.87;;;52.30;21.10;;;;;;5051437;28;20456;-69
2023/07/11 09:58:04;;;;;;;3.23;2.93;;;51.40;20.50;;;;;;5051659;28;20922;-69
2023/07/11 10:00:30;;;;;;;3.20;3.00;;;51.50;21.10;;;;;;5051673;28;20511;-69
2023/07/11 10:02:59;;;;;;;4.47;3.03;;;51.50;21.20;;;;;;5051679;28;20171;-69
2023/07/11 10:05:25;;;;;;;3.73;3.50;;;52.50;21.80;;;;;;5051473;28;20163;-69
2023/07/11 10:08:03;;;;;;;6.20;5.80;;;53.00;20.70;;;;;;5051292;28;20510;-68
2023/07/11 10:10:29;;;;;;;4.07;3.67;;;52.70;20.60;;;;;;5051690;28;20409;-69
2023/07/11 10:12:55;;;;;;;4.27;3.93;;;53.20;21.20;;;;;;5051350;28;20900;-68
2023/07/11 10:15:24;;;;;;;3.10;2.90;;;54.40;20.80;;;;;;5051280;28;20451;-70
2023/07/11 10:17:55;;;;;;;3.53;3.33;;;55.60;20.80;;;;;;5051310;28;20182;-69
2023/07/11 10:20:21;;;;;;;3.77;3.57;;;56.50;19.60;;;;;;5051644;28;20433;-69
2023/07/11 10:22:49;;;;;;;3.63;3.43;;;56.40;19.20;;;;;;5051455;28;20738;-69
2023/07/11 10:25:17;;;;;;;3.87;3.63;;;54.60;18.20;;;;;;5051167;28;20401;-68
2023/07/11 10:27:48;;;;;;;3.30;3.00;;;53.70;18.90;;;;;;5051223;28;20844;-69
2023/07/11 10:30:21;;;;;;;3.57;3.37;;;52.50;19.30;;;;;;5051455;28;20507;-70
2023/07/11 10:32:56;;;;;;;3.10;2.90;;;52.00;19.50;;;;;;5051378;28;20877;-68
2023/07/11 10:35:23;;;;;;;3.63;3.33;;;51.20;19.30;;;;;;5051152;28;20831;-69
2023/07/11 10:38:02;;;;;;;3.10;2.90;;;51.40;20.20;;;;;;5051252;28;20418;-68
2023/07/11 10:40:31;;;;;;;2.80;2.60;;;51.00;19.70;;;;;;5051483;28;20472;-68
2023/07/11 10:43:28;;;;;;;3.70;2.90;;;51.30;20.00;;;;;;5051250;28;20408;-69
2023/07/11 10:46:09;;;;;;;3.57;3.27;;;51.40;19.70;;;;;;5051020;28;20973;-68
2023/07/11 10:48:52;;;;;;;3.40;3.17;;;51.70;19.60;;;;;;5051146;28;20572;-68
2023/07/11 10:51:32;;;;;;;3.60;3.40;;;52.40;20.50;;;;;;5050986;28;20851;-69
2023/07/11 10:54:18;;;;;;;5.00;3.20;;;53.70;19.60;;;;;;5052022;28;20405;-68
2023/07/11 10:56:48;;;;;;;3.23;3.03;;;54.40;19.40;;;;;;5054632;28;20409;-69
2023/07/11 10:59:19;;;;;;;4.10;3.80;;;54.80;18.30;;;;;;5054740;28;20471;-71
2023/07/11 11:02:07;;;;;;;3.83;3.53;;;54.60;18.30;;;;;;5054823;28;20496;-69
2023/07/11 11:04:35;;;;;;;3.73;3.43;;;54.20;18.00;;;;;;5054744;28;20427;-69
2023/07/11 11:07:16;;;;;;;3.20;2.90;;;54.00;19.10;;;;;;5054189;28;20417;-69
2023/07/11 11:09:59;;;;;;;3.60;3.30;;;53.90;18.00;;;;;;5054562;28;20765;-68
2023/07/11 11:12:38;;;;;;;3.90;3.63;;;54.90;18.80;;;;;;5054563;28;20413;-69
2023/07/11 11:15:19;;;;;;;3.60;3.30;;;55.20;17.80;;;;;;5054182;28;20764;-68
2023/07/11 11:18:06;;;;;;;3.73;3.43;;;54.50;17.50;;;;;;5054352;28;20464;-69
2023/07/11 11:20:56;;;;;;;3.93;3.37;;;54.20;18.10;;;;;;5054224;28;20413;-69
2023/07/11 11:23:47;;;;;;;3.40;3.20;;;54.50;18.30;;;;;;5034447;28;20746;-69
2023/07/11 11:26:37;;;;;;;3.30;3.10;;;54.40;18.00;;;;;;5038648;28;20480;-68
2023/07/11 11:29:36;;;;;;;3.50;3.30;;;53.70;17.70;;;;;;5054120;28;20781;-68
2023/07/11 11:32:24;;;;;;;3.20;3.00;;;53.80;18.40;;;;;;5054290;28;21013;-69
2023/07/11 11:35:21;;;;;;;3.83;3.53;;;54.00;18.00;;;;;;5054038;28;20412;-69
2023/07/11 11:38:00;;;;;;;3.57;3.37;;;54.30;18.60;;;;;;5053962;28;20483;-69
2023/07/11 11:40:29;;;;;;;3.10;2.90;;;54.00;18.00;;;;;;5053973;28;20412;-69
2023/07/11 11:43:03;;;;;;;3.80;3.50;;;53.80;18.50;;;;;;5053914;28;20413;-69
2023/07/11 11:45:29;;;;;;;3.47;3.10;;;53.60;18.20;;;;;;5053529;28;20449;-68
2023/07/11 11:47:58;;;;;;;4.03;3.37;;;52.80;18.20;;;;;;5053745;28;20429;-68
2023/07/11 11:50:25;;;;;;;3.37;3.13;;;52.50;18.10;;;;;;5053710;28;20765;-68
2023/07/11 11:52:56;;;;;;;3.50;3.20;;;52.80;18.80;;;;;;5053585;28;20404;-68
2023/07/11 11:55:35;;;;;;;3.67;3.40;;;53.90;18.60;;;;;;5053317;28;20408;-68
2023/07/11 11:58:01;;;;;;;4.43;3.27;;;53.70;18.00;;;;;;5053539;28;20453;-67
2023/07/11 12:00:38;;;;;;;3.77;3.57;;;53.90;18.30;;;;;;5053226;28;20413;-69
2023/07/11 12:03:05;;;;;;;3.93;3.53;;;53.60;17.70;;;;;;5053360;28;20190;-69
2023/07/11 12:05:33;;;;;;;3.93;3.53;;;53.50;18.00;;;;;;5052431;28;20543;-68
2023/07/11 12:08:26;;;;;;;3.47;3.27;;;53.40;18.00;;;;;;5053346;28;20817;-68
2023/07/11 12:11:10;;;;;;;3.10;2.90;;;53.20;18.10;;;;;;5053308;28;20404;-68
2023/07/11 12:13:40;;;;;;;3.20;3.00;;;53.00;18.00;;;;;;5053318;28;20405;-68
2023/07/11 12:16:21;;;;;;;4.60;4.27;;;52.50;18.30;;;;;;5052703;28;20404;-68
2023/07/11 12:18:51;;;;;;;3.80;3.30;;;52.70;18.70;;;;;;5053000;28;20425;-68
2023/07/11 12:21:24;;;;;;;3.90;3.60;;;53.20;18.90;;;;;;5053104;28;20488;-69
2023/07/11 12:23:52;;;;;;;3.80;3.50;;;52.80;18.20;;;;;;5053062;28;20440;-68
2023/07/11 12:26:23;;;;;;;3.27;2.93;;;52.60;18.50;;;;;;5052412;28;20437;-69
2023/07/11 12:28:51;;;;;;;5.20;3.50;;;52.40;18.70;;;;;;5052780;28;20783;-68
2023/07/11 12:31:22;;;;;;;3.73;3.47;;;52.40;18.70;;;;;;5052707;28;20902;-68
2023/07/11 12:34:10;;;;;;;3.93;3.60;;;52.70;18.40;;;;;;5052889;28;20567;-68
2023/07/11 12:36:58;;;;;;;3.43;3.20;;;52.70;18.60;;;;;;5052557;28;20467;-68
2023/07/11 12:39:35;;;;;;;5.50;5.00;;;52.20;18.30;;;;;;5052970;28;20405;-68
2023/07/11 12:42:25;;;;;;;3.47;3.27;;;51.90;18.40;;;;;;5052675;28;20466;-68
2023/07/11 12:44:50;;;;;;;3.50;3.30;;;51.60;18.40;;;;;;5052623;28;20526;-69
2023/07/11 12:47:19;;;;;;;3.60;3.30;;;51.60;18.60;;;;;;5052160;28;20929;-68
2023/07/11 12:49:48;;;;;;;3.83;3.53;;;51.40;18.90;;;;;;5052458;28;20163;-68
2023/07/11 12:52:19;;;;;;;3.93;3.60;;;50.40;19.00;;;;;;5052805;28;20898;-68
2023/07/11 12:54:45;;;;;;;3.77;3.47;;;50.30;19.50;;;;;;5052586;28;20484;-68
2023/07/11 12:57:16;;;;;;;3.77;3.47;;;50.60;19.60;;;;;;5052116;28;20523;-68
2023/07/11 12:59:41;;;;;;;4.10;3.33;;;51.50;20.50;;;;;;5052400;28;20165;-68